sensor_id;sensor_type;location;lat;lon;timestamp;P1;durP1;ratioP1;P2;durP2;ratioP2
39882;SDS011;55824;52.220;21.040;2023-12-20T00:00:28;6.57;;;4.28;;
39882;SDS011;55824;52.220;21.040;2023-12-20T00:02:54;7.28;;;4.78;;
39882;SDS011;55824;52.220;21.040;2023-12-20T00:05:20;7.53;;;4.82;;
39882;SDS011;55824;52.220;21.040;2023-12-20T00:07:46;6.28;;;4.60;;
39882;SDS011;55824;52.220;21.040;2023-12-20T00:10:12;5.57;;;4.20;;
39882;SDS011;55824;52.220;21.040;2023-12-20T00:12:38;7.50;;;4.85;;
39882;SDS011;55824;52.220;21.040;2023-12-20T00:15:04;6.53;;;4.55;;
39882;SDS011;55824;52.220;21.040;2023-12-20T00:17:31;5.45;;;4.18;;
39882;SDS011;55824;52.220;21.040;2023-12-20T00:19:56;6.38;;;4.25;;
39882;SDS011;55824;52.220;21.040;2023-12-20T00:22:22;5.85;;;4.40;;
39882;SDS011;55824;52.220;21.040;2023-12-20T00:24:48;6.30;;;4.20;;
39882;SDS011;55824;52.220;21.040;2023-12-20T00:27:14;5.95;;;4.15;;
39882;SDS011;55824;52.220;21.040;2023-12-20T00:29:40;6.30;;;4.50;;
39882;SDS011;55824;52.220;21.040;2023-12-20T00:32:08;6.30;;;4.25;;
39882;SDS011;55824;52.220;21.040;2023-12-20T00:34:34;6.07;;;3.92;;
39882;SDS011;55824;52.220;21.040;2023-12-20T00:37:00;6.15;;;3.95;;
39882;SDS011;55824;52.220;21.040;2023-12-20T00:39:26;6.25;;;4.43;;
39882;SDS011;55824;52.220;21.040;2023-12-20T00:41:51;6.07;;;3.95;;
39882;SDS011;55824;52.220;21.040;2023-12-20T00:44:17;5.78;;;3.90;;
39882;SDS011;55824;52.220;21.040;2023-12-20T00:46:43;7.40;;;4.18;;
39882;SDS011;55824;52.220;21.040;2023-12-20T00:49:09;5.72;;;3.90;;
39882;SDS011;55824;52.220;21.040;2023-12-20T00:51:35;5.68;;;4.22;;
39882;SDS011;55824;52.220;21.040;2023-12-20T00:54:01;5.72;;;3.75;;
39882;SDS011;55824;52.220;21.040;2023-12-20T00:56:27;5.82;;;3.90;;
39882;SDS011;55824;52.220;21.040;2023-12-20T00:58:53;5.93;;;4.50;;
39882;SDS011;55824;52.220;21.040;2023-12-20T01:01:19;5.22;;;3.70;;
39882;SDS011;55824;52.220;21.040;2023-12-20T01:03:45;5.40;;;3.70;;
39882;SDS011;55824;52.220;21.040;2023-12-20T01:06:11;6.05;;;4.03;;
39882;SDS011;55824;52.220;21.040;2023-12-20T01:08:37;6.53;;;3.97;;
39882;SDS011;55824;52.220;21.040;2023-12-20T01:11:04;5.88;;;4.38;;
39882;SDS011;55824;52.220;21.040;2023-12-20T01:13:30;5.18;;;3.35;;
39882;SDS011;55824;52.220;21.040;2023-12-20T01:15:56;6.05;;;3.63;;
39882;SDS011;55824;52.220;21.040;2023-12-20T01:18:22;6.30;;;3.90;;
39882;SDS011;55824;52.220;21.040;2023-12-20T01:20:48;5.68;;;3.65;;
39882;SDS011;55824;52.220;21.040;2023-12-20T01:23:14;4.75;;;3.67;;
39882;SDS011;55824;52.220;21.040;2023-12-20T01:25:40;5.43;;;3.85;;
39882;SDS011;55824;52.220;21.040;2023-12-20T01:28:06;5.15;;;3.42;;
39882;SDS011;55824;52.220;21.040;2023-12-20T01:30:32;5.00;;;3.55;;
39882;SDS011;55824;52.220;21.040;2023-12-20T01:32:59;5.38;;;3.45;;
39882;SDS011;55824;52.220;21.040;2023-12-20T01:35:26;6.07;;;4.15;;
39882;SDS011;55824;52.220;21.040;2023-12-20T01:37:52;5.85;;;3.65;;
39882;SDS011;55824;52.220;21.040;2023-12-20T01:40:21;5.78;;;3.53;;
39882;SDS011;55824;52.220;21.040;2023-12-20T01:42:47;5.30;;;3.63;;
39882;SDS011;55824;52.220;21.040;2023-12-20T01:45:13;4.95;;;3.22;;
39882;SDS011;55824;52.220;21.040;2023-12-20T01:47:39;6.30;;;3.65;;
39882;SDS011;55824;52.220;21.040;2023-12-20T01:50:05;6.60;;;3.50;;
39882;SDS011;55824;52.220;21.040;2023-12-20T01:52:33;5.68;;;3.45;;
39882;SDS011;55824;52.220;21.040;2023-12-20T01:54:59;4.43;;;3.30;;
39882;SDS011;55824;52.220;21.040;2023-12-20T01:57:28;4.88;;;3.22;;
39882;SDS011;55824;52.220;21.040;2023-12-20T01:59:54;5.40;;;3.55;;
39882;SDS011;55824;52.220;21.040;2023-12-20T02:02:20;5.15;;;3.45;;
39882;SDS011;55824;52.220;21.040;2023-12-20T02:04:46;5.32;;;3.67;;
39882;SDS011;55824;52.220;21.040;2023-12-20T02:07:12;6.70;;;3.15;;
39882;SDS011;55824;52.220;21.040;2023-12-20T02:09:38;5.30;;;3.30;;
39882;SDS011;55824;52.220;21.040;2023-12-20T02:12:05;5.68;;;3.75;;
39882;SDS011;55824;52.220;21.040;2023-12-20T02:14:31;5.03;;;3.30;;
39882;SDS011;55824;52.220;21.040;2023-12-20T02:16:57;4.60;;;3.25;;
39882;SDS011;55824;52.220;21.040;2023-12-20T02:19:23;4.75;;;2.67;;
39882;SDS011;55824;52.220;21.040;2023-12-20T02:21:49;4.32;;;3.08;;
39882;SDS011;55824;52.220;21.040;2023-12-20T02:24:15;5.00;;;3.17;;
39882;SDS011;55824;52.220;21.040;2023-12-20T02:26:42;5.15;;;3.20;;
39882;SDS011;55824;52.220;21.040;2023-12-20T02:29:09;4.80;;;3.28;;
39882;SDS011;55824;52.220;21.040;2023-12-20T02:31:41;4.50;;;3.15;;
39882;SDS011;55824;52.220;21.040;2023-12-20T02:34:33;5.43;;;3.22;;
39882;SDS011;55824;52.220;21.040;2023-12-20T02:36:59;4.20;;;3.05;;
39882;SDS011;55824;52.220;21.040;2023-12-20T02:39:25;4.10;;;2.83;;
39882;SDS011;55824;52.220;21.040;2023-12-20T02:41:51;4.97;;;3.03;;
39882;SDS011;55824;52.220;21.040;2023-12-20T02:44:17;4.80;;;2.90;;
39882;SDS011;55824;52.220;21.040;2023-12-20T02:46:43;4.70;;;3.00;;
39882;SDS011;55824;52.220;21.040;2023-12-20T02:49:09;4.28;;;2.78;;
39882;SDS011;55824;52.220;21.040;2023-12-20T02:51:35;4.28;;;2.92;;
39882;SDS011;55824;52.220;21.040;2023-12-20T02:54:03;3.47;;;2.53;;
39882;SDS011;55824;52.220;21.040;2023-12-20T02:56:29;5.25;;;2.75;;
39882;SDS011;55824;52.220;21.040;2023-12-20T02:58:57;4.25;;;2.72;;
39882;SDS011;55824;52.220;21.040;2023-12-20T03:01:23;4.35;;;2.67;;
39882;SDS011;55824;52.220;21.040;2023-12-20T03:03:49;4.00;;;2.55;;
39882;SDS011;55824;52.220;21.040;2023-12-20T03:06:16;4.15;;;2.67;;
39882;SDS011;55824;52.220;21.040;2023-12-20T03:08:42;4.47;;;2.75;;
39882;SDS011;55824;52.220;21.040;2023-12-20T03:11:08;3.72;;;2.47;;
39882;SDS011;55824;52.220;21.040;2023-12-20T03:13:34;3.50;;;2.45;;
39882;SDS011;55824;52.220;21.040;2023-12-20T03:16:00;3.42;;;2.53;;
39882;SDS011;55824;52.220;21.040;2023-12-20T03:18:26;3.95;;;2.55;;
39882;SDS011;55824;52.220;21.040;2023-12-20T03:20:53;3.75;;;2.60;;
39882;SDS011;55824;52.220;21.040;2023-12-20T03:23:19;3.20;;;2.15;;
39882;SDS011;55824;52.220;21.040;2023-12-20T03:25:45;3.75;;;2.22;;
39882;SDS011;55824;52.220;21.040;2023-12-20T03:28:11;3.90;;;2.30;;
39882;SDS011;55824;52.220;21.040;2023-12-20T03:30:40;2.85;;;2.17;;
39882;SDS011;55824;52.220;21.040;2023-12-20T03:33:06;3.38;;;2.25;;
39882;SDS011;55824;52.220;21.040;2023-12-20T03:35:32;3.60;;;2.25;;
39882;SDS011;55824;52.220;21.040;2023-12-20T03:37:58;2.95;;;2.13;;
39882;SDS011;55824;52.220;21.040;2023-12-20T03:40:25;2.95;;;2.08;;
39882;SDS011;55824;52.220;21.040;2023-12-20T03:42:51;3.42;;;2.08;;
39882;SDS011;55824;52.220;21.040;2023-12-20T03:45:17;3.80;;;2.10;;
39882;SDS011;55824;52.220;21.040;2023-12-20T03:47:43;4.75;;;2.20;;
39882;SDS011;55824;52.220;21.040;2023-12-20T03:50:09;3.65;;;2.15;;
39882;SDS011;55824;52.220;21.040;2023-12-20T03:52:35;2.70;;;1.85;;
39882;SDS011;55824;52.220;21.040;2023-12-20T03:55:01;2.45;;;1.90;;
39882;SDS011;55824;52.220;21.040;2023-12-20T03:57:27;2.60;;;1.88;;
39882;SDS011;55824;52.220;21.040;2023-12-20T03:59:53;3.22;;;2.25;;
39882;SDS011;55824;52.220;21.040;2023-12-20T04:02:19;2.72;;;1.80;;
39882;SDS011;55824;52.220;21.040;2023-12-20T04:04:45;3.10;;;2.10;;
39882;SDS011;55824;52.220;21.040;2023-12-20T04:07:11;3.30;;;2.08;;
39882;SDS011;55824;52.220;21.040;2023-12-20T04:09:37;2.88;;;1.92;;
39882;SDS011;55824;52.220;21.040;2023-12-20T04:12:03;3.28;;;1.90;;
39882;SDS011;55824;52.220;21.040;2023-12-20T04:14:30;3.50;;;2.00;;
39882;SDS011;55824;52.220;21.040;2023-12-20T04:16:56;3.08;;;2.10;;
39882;SDS011;55824;52.220;21.040;2023-12-20T04:19:22;3.05;;;2.05;;
39882;SDS011;55824;52.220;21.040;2023-12-20T04:21:48;2.35;;;1.83;;
39882;SDS011;55824;52.220;21.040;2023-12-20T04:24:14;2.38;;;1.63;;
39882;SDS011;55824;52.220;21.040;2023-12-20T04:26:40;2.47;;;1.73;;
39882;SDS011;55824;52.220;21.040;2023-12-20T04:29:05;3.70;;;2.05;;
39882;SDS011;55824;52.220;21.040;2023-12-20T04:31:31;3.03;;;1.85;;
39882;SDS011;55824;52.220;21.040;2023-12-20T04:33:57;2.53;;;1.85;;
39882;SDS011;55824;52.220;21.040;2023-12-20T04:36:23;2.65;;;1.77;;
39882;SDS011;55824;52.220;21.040;2023-12-20T04:38:51;2.30;;;1.80;;
39882;SDS011;55824;52.220;21.040;2023-12-20T04:41:17;3.08;;;1.85;;
39882;SDS011;55824;52.220;21.040;2023-12-20T04:43:44;3.60;;;2.10;;
39882;SDS011;55824;52.220;21.040;2023-12-20T04:46:10;3.38;;;2.13;;
39882;SDS011;55824;52.220;21.040;2023-12-20T04:48:36;2.63;;;1.80;;
39882;SDS011;55824;52.220;21.040;2023-12-20T04:51:02;3.38;;;1.88;;
39882;SDS011;55824;52.220;21.040;2023-12-20T04:53:28;2.33;;;1.70;;
39882;SDS011;55824;52.220;21.040;2023-12-20T04:55:54;4.25;;;1.90;;
39882;SDS011;55824;52.220;21.040;2023-12-20T04:58:20;3.35;;;2.17;;
39882;SDS011;55824;52.220;21.040;2023-12-20T05:00:46;2.92;;;2.20;;
39882;SDS011;55824;52.220;21.040;2023-12-20T05:03:12;2.95;;;2.00;;
39882;SDS011;55824;52.220;21.040;2023-12-20T05:05:38;3.03;;;1.90;;
39882;SDS011;55824;52.220;21.040;2023-12-20T05:08:04;3.10;;;2.10;;
39882;SDS011;55824;52.220;21.040;2023-12-20T05:10:30;2.92;;;1.90;;
39882;SDS011;55824;52.220;21.040;2023-12-20T05:12:56;2.85;;;1.77;;
39882;SDS011;55824;52.220;21.040;2023-12-20T05:15:22;2.22;;;1.70;;
39882;SDS011;55824;52.220;21.040;2023-12-20T05:17:48;2.67;;;2.03;;
39882;SDS011;55824;52.220;21.040;2023-12-20T05:20:14;2.53;;;1.85;;
39882;SDS011;55824;52.220;21.040;2023-12-20T05:22:40;3.45;;;2.00;;
39882;SDS011;55824;52.220;21.040;2023-12-20T05:25:07;2.88;;;1.90;;
39882;SDS011;55824;52.220;21.040;2023-12-20T05:27:33;2.72;;;1.90;;
39882;SDS011;55824;52.220;21.040;2023-12-20T05:29:59;2.97;;;1.95;;
39882;SDS011;55824;52.220;21.040;2023-12-20T05:32:25;2.28;;;1.83;;
39882;SDS011;55824;52.220;21.040;2023-12-20T05:34:51;2.88;;;1.95;;
39882;SDS011;55824;52.220;21.040;2023-12-20T05:37:17;3.05;;;1.77;;
39882;SDS011;55824;52.220;21.040;2023-12-20T05:39:43;2.85;;;2.05;;
39882;SDS011;55824;52.220;21.040;2023-12-20T05:42:08;2.13;;;1.60;;
39882;SDS011;55824;52.220;21.040;2023-12-20T05:44:35;2.47;;;1.77;;
39882;SDS011;55824;52.220;21.040;2023-12-20T05:47:01;3.45;;;1.70;;
39882;SDS011;55824;52.220;21.040;2023-12-20T05:49:27;2.67;;;1.85;;
39882;SDS011;55824;52.220;21.040;2023-12-20T05:51:53;2.58;;;1.60;;
39882;SDS011;55824;52.220;21.040;2023-12-20T05:54:19;2.30;;;1.85;;
39882;SDS011;55824;52.220;21.040;2023-12-20T05:56:46;2.20;;;1.83;;
39882;SDS011;55824;52.220;21.040;2023-12-20T05:59:12;2.88;;;1.85;;
39882;SDS011;55824;52.220;21.040;2023-12-20T06:01:38;3.40;;;1.58;;
39882;SDS011;55824;52.220;21.040;2023-12-20T06:04:05;2.60;;;1.80;;
39882;SDS011;55824;52.220;21.040;2023-12-20T06:06:31;2.83;;;1.77;;
39882;SDS011;55824;52.220;21.040;2023-12-20T06:08:57;1.95;;;1.73;;
39882;SDS011;55824;52.220;21.040;2023-12-20T06:11:23;2.78;;;1.80;;
39882;SDS011;55824;52.220;21.040;2023-12-20T06:13:49;2.70;;;2.00;;
39882;SDS011;55824;52.220;21.040;2023-12-20T06:16:17;2.50;;;2.15;;
39882;SDS011;55824;52.220;21.040;2023-12-20T06:18:44;2.70;;;1.70;;
39882;SDS011;55824;52.220;21.040;2023-12-20T06:21:10;2.80;;;1.80;;
39882;SDS011;55824;52.220;21.040;2023-12-20T06:23:38;1.92;;;1.70;;
39882;SDS011;55824;52.220;21.040;2023-12-20T06:26:04;2.08;;;1.60;;
39882;SDS011;55824;52.220;21.040;2023-12-20T06:28:30;2.28;;;1.65;;
39882;SDS011;55824;52.220;21.040;2023-12-20T06:30:56;2.50;;;1.48;;
39882;SDS011;55824;52.220;21.040;2023-12-20T06:33:22;2.65;;;1.75;;
39882;SDS011;55824;52.220;21.040;2023-12-20T06:35:49;2.05;;;1.50;;
39882;SDS011;55824;52.220;21.040;2023-12-20T06:38:15;1.85;;;1.55;;
39882;SDS011;55824;52.220;21.040;2023-12-20T06:40:41;2.53;;;1.55;;
39882;SDS011;55824;52.220;21.040;2023-12-20T06:43:07;1.80;;;1.40;;
39882;SDS011;55824;52.220;21.040;2023-12-20T06:45:33;2.88;;;1.70;;
39882;SDS011;55824;52.220;21.040;2023-12-20T06:47:59;2.80;;;1.70;;
39882;SDS011;55824;52.220;21.040;2023-12-20T06:50:25;2.92;;;1.80;;
39882;SDS011;55824;52.220;21.040;2023-12-20T06:52:52;2.65;;;1.63;;
39882;SDS011;55824;52.220;21.040;2023-12-20T06:55:18;2.85;;;1.75;;
39882;SDS011;55824;52.220;21.040;2023-12-20T06:57:44;2.97;;;1.52;;
39882;SDS011;55824;52.220;21.040;2023-12-20T07:00:11;2.00;;;1.60;;
39882;SDS011;55824;52.220;21.040;2023-12-20T07:02:37;3.85;;;1.70;;
39882;SDS011;55824;52.220;21.040;2023-12-20T07:05:03;2.72;;;1.60;;
39882;SDS011;55824;52.220;21.040;2023-12-20T07:07:29;2.45;;;1.60;;
39882;SDS011;55824;52.220;21.040;2023-12-20T07:09:55;2.30;;;1.50;;
39882;SDS011;55824;52.220;21.040;2023-12-20T07:12:21;3.22;;;1.98;;
39882;SDS011;55824;52.220;21.040;2023-12-20T07:14:47;2.58;;;1.35;;
39882;SDS011;55824;52.220;21.040;2023-12-20T07:17:13;2.40;;;1.60;;
39882;SDS011;55824;52.220;21.040;2023-12-20T07:19:40;1.90;;;1.45;;
39882;SDS011;55824;52.220;21.040;2023-12-20T07:22:06;3.00;;;1.83;;
39882;SDS011;55824;52.220;21.040;2023-12-20T07:24:33;1.50;;;1.40;;
39882;SDS011;55824;52.220;21.040;2023-12-20T07:26:59;3.50;;;1.77;;
39882;SDS011;55824;52.220;21.040;2023-12-20T07:29:25;2.63;;;1.85;;
39882;SDS011;55824;52.220;21.040;2023-12-20T07:31:52;3.40;;;1.90;;
39882;SDS011;55824;52.220;21.040;2023-12-20T07:34:18;1.98;;;1.60;;
39882;SDS011;55824;52.220;21.040;2023-12-20T07:36:44;1.65;;;1.30;;
39882;SDS011;55824;52.220;21.040;2023-12-20T07:39:10;2.10;;;1.48;;
39882;SDS011;55824;52.220;21.040;2023-12-20T07:41:36;3.40;;;1.38;;
39882;SDS011;55824;52.220;21.040;2023-12-20T07:44:03;2.53;;;1.50;;
39882;SDS011;55824;52.220;21.040;2023-12-20T07:46:30;2.28;;;1.60;;
39882;SDS011;55824;52.220;21.040;2023-12-20T07:48:56;2.00;;;1.45;;
39882;SDS011;55824;52.220;21.040;2023-12-20T07:51:21;1.80;;;1.50;;
39882;SDS011;55824;52.220;21.040;2023-12-20T07:53:47;2.75;;;1.90;;
39882;SDS011;55824;52.220;21.040;2023-12-20T07:56:17;3.33;;;1.80;;
39882;SDS011;55824;52.220;21.040;2023-12-20T07:58:43;2.92;;;1.95;;
39882;SDS011;55824;52.220;21.040;2023-12-20T08:01:10;4.03;;;1.83;;
39882;SDS011;55824;52.220;21.040;2023-12-20T08:03:36;2.45;;;1.80;;
39882;SDS011;55824;52.220;21.040;2023-12-20T08:06:02;2.03;;;1.55;;
39882;SDS011;55824;52.220;21.040;2023-12-20T08:08:28;2.90;;;1.52;;
39882;SDS011;55824;52.220;21.040;2023-12-20T08:10:54;3.25;;;1.67;;
39882;SDS011;55824;52.220;21.040;2023-12-20T08:13:20;2.05;;;1.35;;
39882;SDS011;55824;52.220;21.040;2023-12-20T08:15:50;2.40;;;1.48;;
39882;SDS011;55824;52.220;21.040;2023-12-20T08:18:16;3.35;;;1.98;;
39882;SDS011;55824;52.220;21.040;2023-12-20T08:20:42;2.72;;;1.45;;
39882;SDS011;55824;52.220;21.040;2023-12-20T08:23:08;1.77;;;1.50;;
39882;SDS011;55824;52.220;21.040;2023-12-20T08:25:34;2.38;;;1.60;;
39882;SDS011;55824;52.220;21.040;2023-12-20T08:28:01;1.40;;;1.30;;
39882;SDS011;55824;52.220;21.040;2023-12-20T08:30:28;2.00;;;1.52;;
39882;SDS011;55824;52.220;21.040;2023-12-20T08:32:54;2.70;;;1.65;;
39882;SDS011;55824;52.220;21.040;2023-12-20T08:35:20;1.88;;;1.33;;
39882;SDS011;55824;52.220;21.040;2023-12-20T08:37:46;6.93;;;1.75;;
39882;SDS011;55824;52.220;21.040;2023-12-20T08:40:12;11.18;;;2.13;;
39882;SDS011;55824;52.220;21.040;2023-12-20T08:42:38;9.13;;;1.85;;
39882;SDS011;55824;52.220;21.040;2023-12-20T08:45:05;6.70;;;1.70;;
39882;SDS011;55824;52.220;21.040;2023-12-20T08:47:31;14.23;;;2.50;;
39882;SDS011;55824;52.220;21.040;2023-12-20T08:49:56;5.45;;;1.65;;
39882;SDS011;55824;52.220;21.040;2023-12-20T08:52:25;12.27;;;2.35;;
39882;SDS011;55824;52.220;21.040;2023-12-20T08:54:52;12.18;;;2.22;;
39882;SDS011;55824;52.220;21.040;2023-12-20T08:57:21;16.10;;;3.30;;
39882;SDS011;55824;52.220;21.040;2023-12-20T08:59:48;16.25;;;2.78;;
39882;SDS011;55824;52.220;21.040;2023-12-20T09:02:16;8.75;;;2.63;;
39882;SDS011;55824;52.220;21.040;2023-12-20T09:04:42;12.15;;;2.60;;
39882;SDS011;55824;52.220;21.040;2023-12-20T09:07:26;10.02;;;2.30;;
39882;SDS011;55824;52.220;21.040;2023-12-20T09:09:55;9.82;;;2.63;;
39882;SDS011;55824;52.220;21.040;2023-12-20T09:12:21;3.35;;;1.83;;
39882;SDS011;55824;52.220;21.040;2023-12-20T09:14:48;5.38;;;2.25;;
39882;SDS011;55824;52.220;21.040;2023-12-20T09:17:14;7.05;;;2.58;;
39882;SDS011;55824;52.220;21.040;2023-12-20T09:19:41;6.18;;;1.80;;
39882;SDS011;55824;52.220;21.040;2023-12-20T09:22:07;7.45;;;2.20;;
39882;SDS011;55824;52.220;21.040;2023-12-20T09:24:33;4.25;;;2.13;;
39882;SDS011;55824;52.220;21.040;2023-12-20T09:26:59;6.15;;;2.00;;
39882;SDS011;55824;52.220;21.040;2023-12-20T09:29:25;7.20;;;1.80;;
39882;SDS011;55824;52.220;21.040;2023-12-20T09:31:51;9.05;;;1.92;;
39882;SDS011;55824;52.220;21.040;2023-12-20T09:34:17;9.32;;;2.25;;
39882;SDS011;55824;52.220;21.040;2023-12-20T09:36:43;13.70;;;2.08;;
39882;SDS011;55824;52.220;21.040;2023-12-20T09:39:13;9.10;;;2.40;;
39882;SDS011;55824;52.220;21.040;2023-12-20T09:41:41;54.53;;;8.73;;
39882;SDS011;55824;52.220;21.040;2023-12-20T09:44:09;54.15;;;7.78;;
39882;SDS011;55824;52.220;21.040;2023-12-20T09:46:37;30.63;;;6.22;;
39882;SDS011;55824;52.220;21.040;2023-12-20T09:49:04;27.23;;;4.30;;
39882;SDS011;55824;52.220;21.040;2023-12-20T09:51:30;17.35;;;4.15;;
39882;SDS011;55824;52.220;21.040;2023-12-20T09:53:56;11.77;;;3.05;;
39882;SDS011;55824;52.220;21.040;2023-12-20T09:56:23;11.75;;;2.78;;
39882;SDS011;55824;52.220;21.040;2023-12-20T09:58:50;17.90;;;2.25;;
39882;SDS011;55824;52.220;21.040;2023-12-20T10:01:16;15.93;;;2.20;;
39882;SDS011;55824;52.220;21.040;2023-12-20T10:03:42;5.97;;;2.03;;
39882;SDS011;55824;52.220;21.040;2023-12-20T10:06:08;8.10;;;1.83;;
39882;SDS011;55824;52.220;21.040;2023-12-20T10:08:34;7.75;;;2.15;;
39882;SDS011;55824;52.220;21.040;2023-12-20T10:11:00;5.78;;;2.15;;
39882;SDS011;55824;52.220;21.040;2023-12-20T10:13:27;5.38;;;2.05;;
39882;SDS011;55824;52.220;21.040;2023-12-20T10:15:54;3.72;;;1.80;;
39882;SDS011;55824;52.220;21.040;2023-12-20T10:18:20;3.47;;;1.80;;
39882;SDS011;55824;52.220;21.040;2023-12-20T10:20:46;3.60;;;1.65;;
39882;SDS011;55824;52.220;21.040;2023-12-20T10:23:13;9.95;;;2.10;;
39882;SDS011;55824;52.220;21.040;2023-12-20T10:25:41;6.40;;;2.30;;
39882;SDS011;55824;52.220;21.040;2023-12-20T10:28:11;5.20;;;2.10;;
39882;SDS011;55824;52.220;21.040;2023-12-20T10:30:37;4.90;;;1.35;;
39882;SDS011;55824;52.220;21.040;2023-12-20T10:33:05;11.60;;;2.13;;
39882;SDS011;55824;52.220;21.040;2023-12-20T10:35:31;8.68;;;2.20;;
39882;SDS011;55824;52.220;21.040;2023-12-20T10:37:57;16.88;;;2.47;;
39882;SDS011;55824;52.220;21.040;2023-12-20T10:40:25;5.80;;;2.10;;
39882;SDS011;55824;52.220;21.040;2023-12-20T10:42:51;10.07;;;2.30;;
39882;SDS011;55824;52.220;21.040;2023-12-20T10:45:18;9.00;;;2.00;;
39882;SDS011;55824;52.220;21.040;2023-12-20T10:47:46;3.60;;;1.63;;
39882;SDS011;55824;52.220;21.040;2023-12-20T10:50:12;9.98;;;2.05;;
39882;SDS011;55824;52.220;21.040;2023-12-20T10:52:38;10.77;;;1.88;;
39882;SDS011;55824;52.220;21.040;2023-12-20T10:55:06;7.85;;;2.08;;
39882;SDS011;55824;52.220;21.040;2023-12-20T10:57:32;7.25;;;1.60;;
39882;SDS011;55824;52.220;21.040;2023-12-20T11:00:00;7.38;;;1.95;;
39882;SDS011;55824;52.220;21.040;2023-12-20T11:02:31;5.63;;;2.03;;
39882;SDS011;55824;52.220;21.040;2023-12-20T11:07:35;6.75;;;2.28;;
39882;SDS011;55824;52.220;21.040;2023-12-20T11:10:25;5.85;;;1.80;;
39882;SDS011;55824;52.220;21.040;2023-12-20T11:12:51;6.10;;;1.85;;
39882;SDS011;55824;52.220;21.040;2023-12-20T11:15:18;6.90;;;2.17;;
39882;SDS011;55824;52.220;21.040;2023-12-20T11:17:45;5.45;;;2.22;;
39882;SDS011;55824;52.220;21.040;2023-12-20T11:20:11;7.38;;;3.63;;
39882;SDS011;55824;52.220;21.040;2023-12-20T11:22:38;4.70;;;2.17;;
39882;SDS011;55824;52.220;21.040;2023-12-20T11:25:10;10.07;;;2.50;;
39882;SDS011;55824;52.220;21.040;2023-12-20T11:27:37;5.85;;;2.58;;
39882;SDS011;55824;52.220;21.040;2023-12-20T11:30:06;8.68;;;2.33;;
39882;SDS011;55824;52.220;21.040;2023-12-20T11:32:33;8.05;;;1.92;;
39882;SDS011;55824;52.220;21.040;2023-12-20T11:35:01;6.00;;;1.88;;
39882;SDS011;55824;52.220;21.040;2023-12-20T11:37:31;6.78;;;1.90;;
39882;SDS011;55824;52.220;21.040;2023-12-20T11:40:02;5.30;;;2.17;;
39882;SDS011;55824;52.220;21.040;2023-12-20T11:43:11;5.38;;;2.13;;
39882;SDS011;55824;52.220;21.040;2023-12-20T11:47:46;9.93;;;1.98;;
39882;SDS011;55824;52.220;21.040;2023-12-20T11:50:15;14.18;;;2.55;;
39882;SDS011;55824;52.220;21.040;2023-12-20T11:52:41;9.38;;;2.58;;
39882;SDS011;55824;52.220;21.040;2023-12-20T11:55:07;12.45;;;2.08;;
39882;SDS011;55824;52.220;21.040;2023-12-20T11:57:34;6.57;;;2.05;;
39882;SDS011;55824;52.220;21.040;2023-12-20T12:00:00;7.00;;;2.38;;
39882;SDS011;55824;52.220;21.040;2023-12-20T12:02:26;4.72;;;2.30;;
39882;SDS011;55824;52.220;21.040;2023-12-20T12:04:52;9.02;;;1.92;;
39882;SDS011;55824;52.220;21.040;2023-12-20T12:07:18;9.73;;;1.80;;
39882;SDS011;55824;52.220;21.040;2023-12-20T12:09:45;3.35;;;1.70;;
39882;SDS011;55824;52.220;21.040;2023-12-20T12:12:11;3.65;;;1.70;;
39882;SDS011;55824;52.220;21.040;2023-12-20T12:14:38;3.75;;;1.63;;
39882;SDS011;55824;52.220;21.040;2023-12-20T12:17:14;4.68;;;1.92;;
39882;SDS011;55824;52.220;21.040;2023-12-20T12:19:41;3.47;;;1.60;;
39882;SDS011;55824;52.220;21.040;2023-12-20T12:22:08;3.92;;;2.00;;
39882;SDS011;55824;52.220;21.040;2023-12-20T12:24:40;4.10;;;1.88;;
39882;SDS011;55824;52.220;21.040;2023-12-20T12:27:06;3.95;;;1.80;;
39882;SDS011;55824;52.220;21.040;2023-12-20T12:29:33;2.47;;;1.60;;
39882;SDS011;55824;52.220;21.040;2023-12-20T12:31:59;3.75;;;1.58;;
39882;SDS011;55824;52.220;21.040;2023-12-20T12:34:28;3.67;;;1.70;;
39882;SDS011;55824;52.220;21.040;2023-12-20T12:36:54;2.13;;;1.50;;
39882;SDS011;55824;52.220;21.040;2023-12-20T12:39:21;4.93;;;2.28;;
39882;SDS011;55824;52.220;21.040;2023-12-20T12:41:50;2.85;;;1.73;;
39882;SDS011;55824;52.220;21.040;2023-12-20T12:44:16;2.58;;;1.80;;
39882;SDS011;55824;52.220;21.040;2023-12-20T12:46:43;3.83;;;1.90;;
39882;SDS011;55824;52.220;21.040;2023-12-20T12:49:09;2.95;;;1.60;;
39882;SDS011;55824;52.220;21.040;2023-12-20T12:51:35;3.20;;;1.63;;
39882;SDS011;55824;52.220;21.040;2023-12-20T12:54:01;4.45;;;1.65;;
39882;SDS011;55824;52.220;21.040;2023-12-20T12:56:27;3.10;;;1.70;;
39882;SDS011;55824;52.220;21.040;2023-12-20T12:58:53;3.72;;;1.52;;
39882;SDS011;55824;52.220;21.040;2023-12-20T13:01:19;2.85;;;1.60;;
39882;SDS011;55824;52.220;21.040;2023-12-20T13:03:45;3.00;;;1.80;;
39882;SDS011;55824;52.220;21.040;2023-12-20T13:06:12;2.63;;;1.70;;
39882;SDS011;55824;52.220;21.040;2023-12-20T13:08:38;4.07;;;2.22;;
39882;SDS011;55824;52.220;21.040;2023-12-20T13:11:04;2.13;;;1.60;;
39882;SDS011;55824;52.220;21.040;2023-12-20T13:13:30;5.22;;;1.95;;
39882;SDS011;55824;52.220;21.040;2023-12-20T13:15:56;5.93;;;1.80;;
39882;SDS011;55824;52.220;21.040;2023-12-20T13:18:22;5.05;;;1.80;;
39882;SDS011;55824;52.220;21.040;2023-12-20T13:20:49;11.18;;;2.10;;
39882;SDS011;55824;52.220;21.040;2023-12-20T13:23:15;5.40;;;2.08;;
39882;SDS011;55824;52.220;21.040;2023-12-20T13:25:43;5.55;;;1.80;;
39882;SDS011;55824;52.220;21.040;2023-12-20T13:28:10;14.10;;;2.88;;
39882;SDS011;55824;52.220;21.040;2023-12-20T13:30:37;10.07;;;2.63;;
39882;SDS011;55824;52.220;21.040;2023-12-20T13:33:04;24.30;;;3.95;;
39882;SDS011;55824;52.220;21.040;2023-12-20T13:35:30;11.60;;;3.35;;
39882;SDS011;55824;52.220;21.040;2023-12-20T13:37:56;16.10;;;3.08;;
39882;SDS011;55824;52.220;21.040;2023-12-20T13:40:23;13.52;;;2.67;;
39882;SDS011;55824;52.220;21.040;2023-12-20T13:42:49;17.27;;;2.92;;
39882;SDS011;55824;52.220;21.040;2023-12-20T13:45:15;19.83;;;3.08;;
39882;SDS011;55824;52.220;21.040;2023-12-20T13:47:41;14.23;;;3.13;;
39882;SDS011;55824;52.220;21.040;2023-12-20T13:50:07;8.35;;;2.55;;
39882;SDS011;55824;52.220;21.040;2023-12-20T13:52:33;10.70;;;2.45;;
39882;SDS011;55824;52.220;21.040;2023-12-20T13:54:59;8.75;;;2.70;;
39882;SDS011;55824;52.220;21.040;2023-12-20T13:57:25;11.07;;;2.38;;
39882;SDS011;55824;52.220;21.040;2023-12-20T13:59:51;13.63;;;2.53;;
39882;SDS011;55824;52.220;21.040;2023-12-20T14:02:17;8.43;;;2.35;;
39882;SDS011;55824;52.220;21.040;2023-12-20T14:04:43;20.92;;;2.95;;
39882;SDS011;55824;52.220;21.040;2023-12-20T14:07:09;8.95;;;3.28;;
39882;SDS011;55824;52.220;21.040;2023-12-20T14:09:36;10.60;;;3.40;;
39882;SDS011;55824;52.220;21.040;2023-12-20T14:12:02;15.88;;;3.33;;
39882;SDS011;55824;52.220;21.040;2023-12-20T14:14:28;10.70;;;2.80;;
39882;SDS011;55824;52.220;21.040;2023-12-20T14:16:54;22.95;;;3.33;;
39882;SDS011;55824;52.220;21.040;2023-12-20T14:19:20;18.38;;;3.38;;
39882;SDS011;55824;52.220;21.040;2023-12-20T14:21:46;40.53;;;5.30;;
39882;SDS011;55824;52.220;21.040;2023-12-20T14:24:12;46.67;;;6.70;;
39882;SDS011;55824;52.220;21.040;2023-12-20T14:26:40;45.05;;;6.07;;
39882;SDS011;55824;52.220;21.040;2023-12-20T14:29:06;37.60;;;6.75;;
39882;SDS011;55824;52.220;21.040;2023-12-20T14:31:34;40.72;;;6.25;;
39882;SDS011;55824;52.220;21.040;2023-12-20T14:34:03;39.42;;;5.25;;